Time;durP1;ratioP1;P1;durP2;ratioP2;P2;SDS_P1;SDS_P2;PMS_P1;PMS_P2;Temp;Humidity;BMP_temperature;BMP_pressure;BME280_temperature;BME280_humidity;BME280_pressure;Samples;Min_cycle;Max_cycle;Signal;HPM_P1;HPM_P2
2022/04/16 00:01:47;;;;;;;58.88;24.08;;;;;;;23.04;65.57;97633.56;4928739;29;20123;-67
2022/04/16 00:04:35;;;;;;;52.65;21.58;;;;;;;23.05;67.54;97631.75;4928501;29;20062;-67
2022/04/16 00:07:16;;;;;;;59.50;24.15;;;;;;;23.06;70.66;97634.25;4928973;29;20048;-66
2022/04/16 00:10:05;;;;;;;53.40;23.33;;;;;;;23.25;70.64;97636.69;4928108;29;20054;-67
2022/04/16 00:12:54;;;;;;;53.67;22.65;;;;;;;23.26;69.19;97648.88;4927690;29;20051;-67
2022/04/16 00:15:38;;;;;;;53.97;22.65;;;;;;;23.30;70.71;97640.69;4927050;29;20056;-67
2022/04/16 00:18:28;;;;;;;49.35;22.67;;;;;;;23.26;70.73;97646.25;4928531;29;20051;-67
2022/04/16 00:21:11;;;;;;;61.88;23.67;;;;;;;23.23;70.97;97654.41;4927271;29;20063;-69
2022/04/16 00:24:01;;;;;;;44.72;22.73;;;;;;;23.15;70.44;97643.81;4928743;29;20051;-67
2022/04/16 00:26:50;;;;;;;54.50;21.15;;;;;;;22.99;68.20;97648.13;4928020;29;20059;-66
2022/04/16 00:29:38;;;;;;;50.03;21.90;;;;;;;22.98;71.45;97652.56;4927303;29;20505;-67
2022/04/16 00:32:21;;;;;;;50.25;22.13;;;;;;;23.01;72.91;97660.13;4928102;29;20705;-66
2022/04/16 00:35:09;;;;;;;50.08;21.25;;;;;;;22.98;70.43;97665.69;4927404;29;20127;-67
2022/04/16 00:37:57;;;;;;;54.72;22.90;;;;;;;22.90;71.07;97657.72;4947367;29;20134;-67
2022/04/16 00:40:52;;;;;;;57.85;22.67;;;;;;;22.88;69.39;97673.63;4927051;29;20171;-68
2022/04/16 00:43:29;;;;;;;50.15;22.00;;;;;;;22.81;68.86;97669.94;4946232;29;20447;-67
2022/04/16 00:46:17;;;;;;;47.60;22.27;;;;;;;22.82;70.33;97681.28;4947985;29;20066;-68
2022/04/16 00:49:00;;;;;;;55.13;21.75;;;;;;;22.84;72.58;97674.88;4947477;29;20514;-68
2022/04/16 00:51:50;;;;;;;49.83;21.83;;;;;;;22.80;71.81;97680.59;4947111;29;20098;-68
2022/04/16 00:54:39;;;;;;;49.97;22.30;;;;;;;22.84;73.90;97684.56;4948266;29;20055;-67
2022/04/16 00:57:23;;;;;;;44.78;20.33;;;;;;;22.86;75.21;97688.69;4928505;29;20056;-67
2022/04/16 01:00:13;;;;;;;48.90;21.83;;;;;;;22.87;74.60;97697.41;4948243;29;20062;-66
2022/04/16 01:02:56;;;;;;;41.10;20.23;;;;;;;22.89;75.41;97703.34;4948924;29;20439;-67
2022/04/16 01:05:45;;;;;;;54.72;21.90;;;;;;;22.92;74.45;97710.91;4942249;29;20117;-67
2022/04/16 01:08:28;;;;;;;55.38;21.65;;;;;;;23.00;74.22;97718.88;4940134;29;20127;-65
2022/04/16 01:11:16;;;;;;;53.67;23.00;;;;;;;23.03;73.45;97710.72;4929171;29;20055;-66
2022/04/16 01:14:05;;;;;;;52.45;21.15;;;;;;;23.09;74.59;97727.69;4929528;29;20519;-67
2022/04/16 01:16:47;;;;;;;56.95;23.40;;;;;;;23.08;72.54;97724.22;4929291;29;20052;-65
2022/04/16 01:19:47;;;;;;;51.65;23.17;;;;;;;23.27;77.52;97734.63;4938266;29;20067;-66
2022/04/16 01:22:29;;;;;;;59.73;24.67;;;;;;;23.17;71.77;97736.50;4921764;29;20054;-67
2022/04/16 01:25:19;;;;;;;52.30;21.23;;;;;;;23.41;78.12;97735.91;4928492;29;20110;-66
2022/04/16 01:28:01;;;;;;;56.38;23.13;;;;;;;23.40;76.74;97736.06;4947665;28;20118;-66
2022/04/16 01:30:50;;;;;;;51.35;21.77;;;;;;;23.41;72.71;97745.59;4947973;29;20040;-67
2022/04/16 01:33:32;;;;;;;52.35;22.40;;;;;;;23.53;76.34;97747.06;4928618;29;20055;-67
2022/04/16 01:36:31;;;;;;;48.05;22.00;;;;;;;23.58;75.75;97750.06;4943405;28;20060;-68
2022/04/16 01:39:07;;;;;;;60.10;23.90;;;;;;;23.64;74.56;97746.84;4927495;29;20123;-67
2022/04/16 01:42:04;;;;;;;57.47;24.35;;;;;;;23.74;75.52;97757.28;4943865;29;20439;-68
2022/04/16 01:44:42;;;;;;;56.22;23.20;;;;;;;23.90;79.14;97763.50;4946198;28;20495;-67
2022/04/16 01:47:38;;;;;;;48.33;21.92;;;;;;;24.02;77.44;97756.22;4941482;29;20074;-68
2022/04/16 01:50:14;;;;;;;54.47;22.65;;;;;;;24.18;79.93;97760.78;4939825;29;20059;-68
2022/04/16 01:53:02;;;;;;;48.40;22.38;;;;;;;24.30;75.63;97762.19;4929275;29;20055;-68
2022/04/16 01:55:44;;;;;;;55.70;24.75;;;;;;;24.31;74.58;97761.22;4929281;29;20599;-68
2022/04/16 01:58:33;;;;;;;59.72;24.52;;;;;;;24.37;74.66;97755.31;4941839;29;20047;-67
2022/04/16 02:01:15;;;;;;;62.00;24.48;;;;;;;24.49;68.94;97756.72;4937369;29;20043;-67
2022/04/16 02:04:11;;;;;;;56.72;24.35;;;;;;;24.74;66.83;97774.28;4936984;29;20050;-67
2022/04/16 02:06:49;;;;;;;66.68;25.83;;;;;;;24.90;63.39;97778.00;4935231;29;20089;-68
2022/04/16 02:09:37;;;;;;;62.47;25.13;;;;;;;25.19;72.00;97767.94;4935397;29;20053;-67
2022/04/16 02:12:19;;;;;;;53.10;24.27;;;;;;;25.39;67.08;97771.09;4947588;29;20142;-67
2022/04/16 02:15:09;;;;;;;53.88;24.10;;;;;;;25.64;67.68;97772.00;4942899;29;20106;-67
2022/04/16 02:17:50;;;;;;;58.80;25.35;;;;;;;26.09;67.69;97776.84;4938002;28;20507;-67
2022/04/16 02:20:46;;;;;;;59.35;24.90;;;;;;;26.60;61.26;97775.63;4935951;29;20059;-68
2022/04/16 02:23:21;;;;;;;54.78;24.70;;;;;;;27.11;61.55;97776.16;4934583;28;20622;-67
2022/04/16 02:26:10;;;;;;;63.53;25.35;;;;;;;27.55;58.37;97781.72;4929125;29;20455;-68
2022/04/16 02:28:51;;;;;;;59.58;26.48;;;;;;;27.98;54.05;97780.25;4944597;29;20051;-67
2022/04/16 02:31:41;;;;;;;55.63;24.73;;;;;;;28.10;54.07;97781.47;4925560;29;20055;-67
2022/04/16 02:34:23;;;;;;;69.05;26.67;;;;;;;28.58;54.71;97784.69;4943764;29;20055;-68
2022/04/16 02:37:18;;;;;;;53.95;24.83;;;;;;;28.72;54.47;97787.38;4947444;28;20110;-68
2022/04/16 02:40:08;;;;;;;68.05;24.73;;;;;;;28.80;49.03;97786.50;4927592;29;20576;-68
2022/04/16 02:42:57;;;;;;;70.95;24.85;;;;;;;28.97;53.24;97792.44;4940528;29;20134;-67
2022/04/16 02:48:48;;;;;;;58.53;23.58;;;;;;;28.83;46.00;97794.06;4946439;28;20506;-68
2022/04/16 02:51:29;;;;;;;56.75;23.42;;;;;;;29.02;46.34;97788.22;4943510;28;20058;-68
2022/04/16 02:54:18;;;;;;;60.60;23.50;;;;;;;28.73;45.26;97790.88;4927930;29;20416;-68
2022/04/16 02:57:00;;;;;;;52.92;22.52;;;;;;;28.65;46.01;97796.25;4928433;29;20051;-68
2022/04/16 02:59:49;;;;;;;48.90;22.65;;;;;;;28.78;45.72;97797.28;4926697;29;20059;-66
2022/04/16 03:02:45;;;;;;;50.47;22.30;;;;;;;28.89;45.72;97793.38;4939484;29;20071;-66
2022/04/16 03:05:20;;;;;;;52.92;24.33;;;;;;;28.96;47.24;97791.63;4931756;29;20062;-67
2022/04/16 03:08:15;;;;;;;43.22;21.48;;;;;;;28.90;47.39;97789.69;4927995;29;20060;-67
2022/04/16 03:10:52;;;;;;;57.08;21.45;;;;;;;29.06;46.60;97793.97;4928389;29;20059;-67
2022/04/16 03:13:40;;;;;;;61.13;26.27;;;;;;;28.88;45.14;97795.19;4933404;29;20055;-67
2022/04/16 03:19:29;;;;;;;57.78;25.60;;;;;;;29.00;43.81;97808.81;4915190;29;20056;-68
2022/04/16 03:22:12;;;;;;;49.83;22.83;;;;;;;29.17;49.12;97807.59;4948235;29;20046;-67
2022/04/16 03:25:11;;;;;;;56.67;23.23;;;;;;;29.28;51.12;97804.50;4950100;29;20051;-67
2022/04/16 03:27:46;;;;;;;51.47;21.95;;;;;;;29.43;51.73;97811.63;4950048;29;20061;-67
2022/04/16 03:30:34;;;;;;;50.95;21.23;;;;;;;29.64;51.60;97817.78;4931836;29;20372;-68
2022/04/16 03:33:17;;;;;;;44.10;21.77;;;;;;;29.80;49.58;97823.88;4929791;28;20051;-68
2022/04/16 03:36:11;;;;;;;53.40;22.52;;;;;;;29.93;47.01;97829.34;4945630;28;20510;-68
2022/04/16 03:38:59;;;;;;;69.80;22.05;;;;;;;30.08;45.29;97830.13;4914776;29;20055;-68
2022/04/16 03:41:48;;;;;;;61.55;21.23;;;;;;;30.14;46.39;97825.88;4948607;29;20051;-69
2022/04/16 03:44:30;;;;;;;53.42;23.65;;;;;;;30.40;47.36;97832.25;4949583;29;20379;-68
2022/04/16 03:47:19;;;;;;;59.38;25.13;;;;;;;30.64;44.75;97831.03;4945223;29;20070;-68
2022/04/16 03:50:02;;;;;;;57.72;25.25;;;;;;;30.91;49.39;97828.53;4949118;29;20058;-68
2022/04/16 03:52:52;;;;;;;68.05;25.73;;;;;;;31.09;42.51;97836.88;4947333;29;20047;-67
2022/04/16 04:01:50;;;;;;;60.20;24.17;;;;;;;31.55;37.29;97837.88;4949601;29;20050;-68
2022/04/16 04:04:40;;;;;;;65.75;23.02;;;;;;;31.97;42.27;97832.50;4941826;29;20055;-68
2022/04/16 04:07:23;;;;;;;51.45;22.10;;;;;;;32.22;46.31;97839.75;4938502;29;20044;-67
2022/04/16 04:10:13;;;;;;;48.50;21.67;;;;;;;32.60;40.56;97841.78;4942343;28;20051;-66
2022/04/16 04:13:02;;;;;;;67.63;20.60;;;;;;;32.54;37.26;97854.13;4936890;28;20047;-67
2022/04/16 04:15:50;;;;;;;47.72;19.40;;;;;;;32.86;36.58;97846.31;4930351;29;20051;-67
2022/04/16 04:18:32;;;;;;;41.75;18.48;;;;;;;33.06;41.59;97841.75;4928517;29;20646;-68
2022/04/16 04:21:21;;;;;;;60.22;21.15;;;;;;;33.56;39.87;97844.69;4929193;29;20047;-67
2022/04/16 04:24:03;;;;;;;49.47;20.58;;;;;;;33.56;35.92;97853.53;4930828;29;20052;-68
2022/04/16 04:26:52;;;;;;;44.88;20.35;;;;;;;34.00;40.90;97850.03;4929578;28;20051;-68
2022/04/16 04:29:36;;;;;;;53.70;21.23;;;;;;;34.20;39.09;97855.25;4928894;29;20111;-68
2022/04/16 04:32:24;;;;;;;47.05;20.55;;;;;;;34.53;37.06;97850.50;4928182;29;20420;-69
2022/04/16 04:35:08;;;;;;;46.00;23.38;;;;;;;34.60;38.83;97852.28;4945914;29;20117;-69
2022/04/16 04:38:02;;;;;;;54.60;22.48;;;;;;;34.85;39.46;97848.59;4944459;28;20139;-69
2022/04/16 04:40:51;;;;;;;51.72;22.27;;;;;;;35.09;38.75;97854.09;4926030;29;20054;-68
2022/04/16 04:43:40;;;;;;;46.75;18.08;;;;;;;35.42;37.01;97851.09;4909152;29;20059;-70
2022/04/16 04:46:29;;;;;;;39.60;14.77;;;;;;;35.43;32.88;97847.38;4918806;29;20062;-69
2022/04/16 04:49:18;;;;;;;38.03;17.13;;;;;;;35.31;32.94;97855.31;4920968;29;20062;-65
2022/04/16 04:52:07;;;;;;;34.47;16.23;;;;;;;35.85;35.71;97846.41;4944338;28;20055;-68
2022/04/16 04:54:56;;;;;;;33.53;15.07;;;;;;;35.68;33.33;97846.19;4932010;29;20055;-67
2022/04/16 04:57:42;;;;;;;41.53;16.45;;;;;;;35.66;35.32;97839.44;4941191;29;20047;-67
2022/04/16 05:00:31;;;;;;;31.88;14.60;;;;;;;36.03;34.53;97848.22;4921494;29;20055;-68
2022/04/16 05:03:20;;;;;;;36.58;15.48;;;;;;;35.63;30.92;97839.88;4935174;29;20070;-68
2022/04/16 05:06:01;;;;;;;42.53;17.10;;;;;;;36.14;31.06;97843.94;4929076;29;20115;-67
2022/04/16 05:08:51;;;;;;;32.30;15.90;;;;;;;36.27;32.85;97841.09;4933322;29;20044;-67
2022/04/16 05:11:39;;;;;;;34.85;15.57;;;;;;;36.29;38.27;97837.13;4941786;29;20389;-67
2022/04/16 05:14:28;;;;;;;30.42;13.90;;;;;;;36.21;34.57;97833.97;4916312;29;20051;-66
2022/04/16 05:17:09;;;;;;;33.40;13.20;;;;;;;36.32;32.65;97836.66;4947191;29;20471;-67
2022/04/16 05:19:58;;;;;;;32.20;13.13;;;;;;;36.47;35.03;97838.09;4942803;29;20055;-67
2022/04/16 05:22:40;;;;;;;30.02;12.82;;;;;;;36.36;36.56;97829.78;4947765;29;20583;-67
2022/04/16 05:25:29;;;;;;;23.88;10.15;;;;;;;36.23;28.69;97831.88;4944575;29;20046;-67
2022/04/16 05:28:11;;;;;;;24.48;10.77;;;;;;;36.18;28.34;97834.38;4946475;29;20047;-66
2022/04/16 05:31:03;;;;;;;24.20;10.65;;;;;;;36.54;33.27;97836.09;4930023;29;20146;-66
2022/04/16 05:36:57;;;;;;;23.98;9.77;;;;;;;36.29;32.70;97834.44;4947815;28;20055;-66
2022/04/16 05:39:45;;;;;;;21.65;9.02;;;;;;;36.66;33.63;97827.03;4922806;29;20131;-67
2022/04/16 05:42:34;;;;;;;23.25;9.68;;;;;;;36.23;29.16;97834.56;4945847;28;20054;-66
2022/04/16 05:45:23;;;;;;;26.00;7.75;;;;;;;36.60;27.95;97845.91;4945955;29;20054;-67
2022/04/16 05:48:12;;;;;;;23.63;8.82;;;;;;;36.73;28.68;97841.16;4943233;29;20051;-66
2022/04/16 05:50:57;;;;;;;21.27;9.90;;;;;;;36.35;27.54;97832.69;4947841;29;20051;-66
2022/04/16 05:53:46;;;;;;;22.30;9.93;;;;;;;35.83;29.07;97828.94;4918067;29;20054;-66
2022/04/16 05:56:35;;;;;;;22.92;9.57;;;;;;;36.50;30.12;97838.44;4937515;29;20051;-65
2022/04/16 05:59:18;;;;;;;22.80;7.95;;;;;;;36.45;34.11;97822.22;4928807;29;20058;-66
2022/04/16 06:02:09;;;;;;;18.65;6.60;;;;;;;36.57;35.29;97828.38;4926207;29;20047;-67
2022/04/16 06:04:52;;;;;;;19.80;6.97;;;;;;;36.37;33.66;97827.91;4922636;28;20051;-66
2022/04/16 06:07:40;;;;;;;23.00;9.55;;;;;;;36.11;31.05;97822.94;4923212;29;20063;-66
2022/04/16 06:10:23;;;;;;;18.77;7.05;;;;;;;36.11;31.16;97822.94;4921379;29;20454;-65
2022/04/16 06:13:12;;;;;;;23.15;7.68;;;;;;;35.90;29.96;97816.25;4926505;29;20055;-65
2022/04/16 06:16:00;;;;;;;23.73;7.68;;;;;;;36.26;33.77;97812.59;4927812;29;20047;-64
2022/04/16 06:18:49;;;;;;;19.00;7.97;;;;;;;36.28;29.96;97813.19;4926103;29;20056;-65
2022/04/16 06:21:38;;;;;;;23.23;8.13;;;;;;;36.51;31.23;97807.84;4936687;29;20055;-65
2022/04/16 06:24:20;;;;;;;20.55;7.72;;;;;;;36.56;34.52;97802.59;4940168;29;20051;-66
2022/04/16 06:27:10;;;;;;;27.05;9.07;;;;;;;36.32;28.66;97814.38;4940015;29;20502;-66
2022/04/16 06:29:51;;;;;;;29.87;11.27;;;;;;;36.08;27.80;97804.63;4928219;29;20075;-67
2022/04/16 06:32:41;;;;;;;27.52;11.95;;;;;;;36.20;29.88;97802.81;4936198;29;20054;-66
2022/04/16 06:35:24;;;;;;;32.80;14.45;;;;;;;36.07;29.37;97803.81;4942914;29;20110;-67
2022/04/16 06:38:19;;;;;;;53.45;15.60;;;;;;;36.12;39.71;97795.06;4904331;28;20044;-69
2022/04/16 06:40:54;;;;;;;30.65;13.95;;;;;;;36.07;37.13;97789.59;4909076;29;20503;-66
2022/04/16 06:43:42;;;;;;;39.58;14.80;;;;;;;35.93;37.12;97781.72;4877387;29;20404;-66
2022/04/16 06:46:31;;;;;;;37.83;14.98;;;;;;;35.63;28.67;97786.25;4892716;29;20048;-66
2022/04/16 06:49:13;;;;;;;41.58;15.38;;;;;;;35.81;33.01;97778.22;4906198;29;20080;-66
2022/04/16 06:52:02;;;;;;;45.72;19.27;;;;;;;36.05;32.14;97779.06;4906706;29;20123;-67
2022/04/16 06:54:45;;;;;;;49.72;20.38;;;;;;;36.09;39.79;97769.50;4908256;29;20123;-67
2022/04/16 06:57:34;;;;;;;36.92;16.52;;;;;;;35.80;28.88;97771.19;4907917;29;20059;-67
2022/04/16 07:00:16;;;;;;;38.10;16.65;;;;;;;35.83;35.58;97765.41;4892065;29;20831;-67
2022/04/16 07:03:06;;;;;;;39.97;18.02;;;;;;;35.88;36.59;97753.97;4898323;29;20055;-67
2022/04/16 07:05:47;;;;;;;40.40;18.25;;;;;;;35.96;36.51;97759.81;4907431;29;20059;-65
2022/04/16 07:08:37;;;;;;;41.10;18.48;;;;;;;35.94;34.01;97751.19;4924178;29;20043;-67
2022/04/16 07:11:18;;;;;;;33.92;18.70;;;;;;;35.83;32.80;97749.31;4931361;29;20822;-67
2022/04/16 07:14:07;;;;;;;38.55;17.67;;;;;;;35.77;32.39;97749.38;4929892;29;20047;-67
2022/04/16 07:16:49;;;;;;;37.22;18.02;;;;;;;35.62;38.66;97741.75;4931789;29;20043;-65
2022/04/16 07:19:39;;;;;;;39.88;18.45;;;;;;;35.80;35.93;97739.03;4930886;29;20059;-68
2022/04/16 07:22:21;;;;;;;48.53;19.85;;;;;;;35.80;32.28;97739.03;4930832;29;20044;-68
2022/04/16 07:25:13;;;;;;;42.75;18.88;;;;;;;35.86;30.73;97738.09;4935440;29;20113;-67
2022/04/16 07:27:56;;;;;;;42.67;19.08;;;;;;;35.82;32.89;97736.13;4912518;29;20143;-68
2022/04/16 07:30:45;;;;;;;39.78;19.33;;;;;;;35.75;38.16;97719.31;4911242;29;20123;-67
2022/04/16 07:33:31;;;;;;;38.40;19.05;;;;;;;35.34;26.20;97736.19;4928572;29;20055;-67
2022/04/16 07:36:19;;;;;;;36.85;18.15;;;;;;;35.60;26.90;97739.28;4927388;28;20634;-67
2022/04/16 07:39:01;;;;;;;28.42;17.17;;;;;;;35.85;29.80;97722.25;4957307;28;20039;-67
2022/04/16 07:41:51;;;;;;;56.85;19.98;;;;;;;35.80;31.96;97725.63;4949565;29;20055;-69
2022/04/16 07:44:39;;;;;;;34.25;16.92;;;;;;;35.91;39.37;97714.13;4928147;29;20055;-65
2022/04/16 07:47:28;;;;;;;28.55;14.40;;;;;;;35.72;33.95;97709.88;4949113;28;20058;-67
2022/04/16 07:50:11;;;;;;;24.90;11.18;;;;;;;35.79;30.95;97705.22;4946742;28;20054;-67
2022/04/16 07:53:00;;;;;;;28.98;13.35;;;;;;;35.77;32.50;97709.97;4946679;29;20051;-69
2022/04/16 07:55:41;;;;;;;34.80;15.38;;;;;;;35.64;33.10;97700.28;4948118;28;20083;-68
2022/04/16 07:58:31;;;;;;;33.80;15.80;;;;;;;35.54;29.64;97707.22;4942496;29;20734;-67
2022/04/16 08:01:20;;;;;;;34.88;15.25;;;;;;;35.62;30.78;97704.22;4946085;29;20066;-66
2022/04/16 08:04:02;;;;;;;31.48;14.65;;;;;;;35.46;29.29;97704.88;4931874;29;20051;-68
2022/04/16 08:06:53;;;;;;;33.67;13.80;;;;;;;35.51;31.87;97691.63;4944262;28;20098;-68
2022/04/16 08:09:36;;;;;;;29.13;11.65;;;;;;;35.37;30.31;97690.16;4947631;29;20383;-68
2022/04/16 08:12:27;;;;;;;27.42;12.07;;;;;;;35.36;28.37;97688.53;4931799;29;20138;-67
2022/04/16 08:15:14;;;;;;;23.08;11.30;;;;;;;35.42;29.98;97679.59;4947437;29;20051;-68
2022/04/16 08:18:03;;;;;;;19.88;9.55;;;;;;;35.32;29.83;97671.28;4949972;29;20062;-70
2022/04/16 08:20:45;;;;;;;22.88;7.93;;;;;;;35.32;26.21;97676.63;4947776;29;20065;-69
2022/04/16 08:23:44;;;;;;;22.15;9.52;;;;;;;35.29;26.33;97668.00;4601790;28;10000168;-68
2022/04/16 08:26:20;;;;;;;26.77;8.45;;;;;;;35.42;29.21;97668.88;4942689;29;20565;-69
2022/04/16 08:29:08;;;;;;;22.88;9.88;;;;;;;35.48;27.44;97665.25;4940640;29;20494;-69
2022/04/16 08:31:50;;;;;;;23.20;10.57;;;;;;;35.28;24.71;97665.56;4947380;29;20118;-69
2022/04/16 08:34:59;;;;;;;28.20;9.48;;;;;;;35.38;25.82;97665.00;4947032;28;20051;-69
2022/04/16 08:37:49;;;;;;;25.50;8.68;;;;;;;35.30;26.05;97658.09;4948457;28;20084;-71
2022/04/16 08:40:32;;;;;;;24.48;8.43;;;;;;;35.35;28.97;97649.41;4946820;28;20050;-69
2022/04/16 08:43:26;;;;;;;20.98;7.90;;;;;;;35.27;29.54;97640.66;4944780;29;20128;-70
2022/04/16 08:46:07;;;;;;;22.50;9.27;;;;;;;35.20;27.18;97639.88;4946224;29;20342;-69
2022/04/16 08:48:57;;;;;;;28.20;8.65;;;;;;;35.16;28.27;97633.34;4947286;29;20062;-67
2022/04/16 08:51:38;;;;;;;28.65;8.73;;;;;;;35.16;27.48;97636.03;4947421;29;20129;-66
2022/04/16 08:54:28;;;;;;;20.40;9.48;;;;;;;35.09;29.90;97623.78;4946791;29;20051;-69
2022/04/16 08:57:16;;;;;;;27.17;10.55;;;;;;;35.06;26.68;97621.53;4946164;28;20063;-67
2022/04/16 09:00:05;;;;;;;26.50;9.88;;;;;;;34.99;27.56;97618.97;4930542;29;20055;-69
2022/04/16 09:02:56;;;;;;;20.58;10.10;;;;;;;34.92;27.72;97610.22;4940451;28;20676;-65
2022/04/16 09:05:45;;;;;;;24.88;10.57;;;;;;;34.86;25.59;97609.25;4944006;29;20472;-68
2022/04/16 09:08:31;;;;;;;30.65;9.40;;;;;;;34.86;31.44;97597.75;4939573;29;20142;-68
2022/04/16 09:11:20;;;;;;;28.85;9.27;;;;;;;34.86;27.94;97592.38;4936149;29;20059;-67
2022/04/16 09:14:08;;;;;;;27.83;9.40;;;;;;;34.90;30.96;97593.53;4946762;28;20105;-66
2022/04/16 09:16:50;;;;;;;20.85;8.57;;;;;;;34.81;28.20;97592.22;4948519;28;20506;-67
2022/04/16 09:19:39;;;;;;;21.33;8.57;;;;;;;34.77;28.79;97588.38;4930868;29;20051;-67
2022/04/16 09:22:40;;;;;;;16.17;7.13;;;;;;;34.72;29.49;97586.34;4947910;29;20055;-67
2022/04/16 09:25:30;;;;;;;26.67;8.18;;;;;;;34.70;25.21;97582.28;4943538;28;20106;-67
2022/04/16 09:28:12;;;;;;;18.15;8.05;;;;;;;34.70;26.53;97577.75;4949053;29;20047;-69
2022/04/16 09:31:02;;;;;;;21.85;8.15;;;;;;;34.61;29.82;97576.41;4949174;29;20059;-66
2022/04/16 09:33:44;;;;;;;21.15;8.65;;;;;;;34.60;25.38;97576.63;4946954;28;20090;-67
2022/04/16 09:36:44;;;;;;;18.90;8.18;;;;;;;34.68;23.90;97570.97;4943503;29;20059;-67
2022/04/16 09:39:33;;;;;;;30.95;8.23;;;;;;;34.74;26.06;97564.75;4939766;28;20059;-67
2022/04/16 09:42:34;;;;;;;28.77;8.18;;;;;;;34.60;27.52;97563.25;4943434;29;20059;-67
2022/04/16 09:45:29;;;;;;;26.70;9.57;;;;;;;34.53;27.18;97560.66;4941270;29;20138;-71
2022/04/16 09:48:10;;;;;;;23.00;10.88;;;;;;;34.50;28.80;97553.91;4947398;28;20558;-69
2022/04/16 09:50:59;;;;;;;40.22;12.52;;;;;;;34.49;31.63;97552.25;4948440;29;20712;-67
2022/04/16 09:53:43;;;;;;;36.10;12.15;;;;;;;34.44;29.54;97551.31;4945340;29;20052;-71
2022/04/16 09:56:34;;;;;;;29.15;12.05;;;;;;;34.39;28.83;97549.34;4946158;29;20161;-69
2022/04/16 09:59:24;;;;;;;33.28;10.57;;;;;;;34.33;29.44;97542.19;4943829;28;20054;-67
2022/04/16 10:02:09;;;;;;;38.05;11.98;;;;;;;34.36;25.71;97538.25;4944549;29;20044;-65
2022/04/16 10:04:58;;;;;;;32.63;12.38;;;;;;;34.75;23.40;97542.28;4943124;29;20479;-67
2022/04/16 10:07:41;;;;;;;22.35;10.40;;;;;;;34.60;27.08;97531.97;4944526;29;20062;-68
2022/04/16 10:10:31;;;;;;;29.90;10.38;;;;;;;34.60;26.12;97533.81;4945389;29;20423;-66
2022/04/16 10:13:21;;;;;;;31.50;10.75;;;;;;;34.60;26.97;97523.13;4944394;28;20139;-66
2022/04/16 10:16:12;;;;;;;28.02;12.50;;;;;;;34.51;25.26;97520.75;4927981;29;20051;-66
2022/04/16 10:19:00;;;;;;;31.75;11.18;;;;;;;34.45;28.91;97510.16;4945893;29;20066;-68
2022/04/16 10:21:43;;;;;;;29.13;11.20;;;;;;;34.36;28.53;97512.31;4940080;28;20055;-66
2022/04/16 10:24:31;;;;;;;37.72;13.35;;;;;;;34.28;30.76;97504.59;4940984;29;20051;-66
2022/04/16 10:27:14;;;;;;;26.27;10.45;;;;;;;34.21;31.95;97503.03;4942193;29;20070;-67
2022/04/16 10:30:20;;;;;;;46.53;12.52;;;;;;;34.22;27.65;97493.97;4949445;28;20039;-67
2022/04/16 10:32:56;;;;;;;20.98;10.25;;;;;;;34.15;28.76;97494.88;4902937;29;20634;-68
2022/04/16 10:36:00;;;;;;;26.30;10.80;;;;;;;34.33;27.07;97491.34;4949081;29;20051;-67
2022/04/16 10:38:42;;;;;;;31.30;11.30;;;;;;;34.20;28.18;97486.16;4948044;29;20117;-66
2022/04/16 10:41:32;;;;;;;25.92;10.68;;;;;;;34.12;30.17;97486.47;4939048;28;20491;-66
2022/04/16 10:44:14;;;;;;;30.52;12.05;;;;;;;34.04;30.11;97490.28;4947539;29;20062;-65
2022/04/16 10:47:04;;;;;;;29.50;11.70;;;;;;;34.03;28.57;97485.13;4946950;29;20110;-66
2022/04/16 10:49:45;;;;;;;25.17;11.38;;;;;;;33.91;29.72;97477.06;4946312;29;20475;-66
2022/04/16 10:52:34;;;;;;;26.80;10.57;;;;;;;33.86;32.69;97478.75;4945912;29;20047;-65
2022/04/16 10:55:16;;;;;;;34.22;11.32;;;;;;;33.76;30.29;97476.63;4944623;29;20142;-66
2022/04/16 10:58:13;;;;;;;24.92;9.70;;;;;;;33.73;29.65;97480.56;4947412;29;20047;-66
2022/04/16 11:01:06;;;;;;;22.85;11.88;;;;;;;33.71;30.93;97471.91;4947345;29;20052;-66
2022/04/16 11:03:56;;;;;;;23.02;9.32;;;;;;;33.76;30.02;97477.41;4946755;28;20043;-65
2022/04/16 11:06:41;;;;;;;22.05;10.15;;;;;;;33.71;30.98;97474.59;4942713;28;20047;-67
2022/04/16 11:09:31;;;;;;;23.88;11.40;;;;;;;33.65;30.71;97477.34;4944949;29;20051;-66
2022/04/16 11:12:14;;;;;;;29.35;11.07;;;;;;;33.80;29.28;97475.94;4945650;29;20047;-66
2022/04/16 11:15:03;;;;;;;34.75;12.25;;;;;;;33.78;30.16;97472.69;4945679;28;20046;-65
2022/04/16 11:17:58;;;;;;;26.02;10.73;;;;;;;33.68;30.98;97472.38;4946809;29;20051;-65
2022/04/16 11:20:41;;;;;;;29.23;10.27;;;;;;;33.60;31.41;97469.19;4946632;28;20051;-66
2022/04/16 11:23:29;;;;;;;32.03;11.85;;;;;;;33.55;29.48;97472.50;4945677;28;20062;-70
2022/04/16 11:35:41;;;;;;;32.92;10.75;;;;;;;33.36;31.30;97468.19;4947288;28;20066;-69
2022/04/16 11:38:29;;;;;;;25.98;10.50;;;;;;;33.24;30.02;97468.06;4933674;29;20522;-69
2022/04/16 11:41:24;;;;;;;31.58;10.10;;;;;;;33.12;31.24;97469.00;4933250;29;20735;-72
2022/04/16 11:43:59;;;;;;;129.18;16.25;;;;;;;33.09;30.42;97466.75;4940194;29;20059;-68
2022/04/16 11:46:48;;;;;;;38.05;10.40;;;;;;;32.97;30.47;97470.13;4931917;29;20106;-67
2022/04/16 11:49:30;;;;;;;26.02;10.55;;;;;;;32.98;28.72;97466.41;4914495;29;20150;-71
2022/04/16 11:52:27;;;;;;;22.48;10.75;;;;;;;32.89;31.67;97473.06;4930081;29;20479;-71
2022/04/16 11:55:24;;;;;;;22.35;10.48;;;;;;;32.84;31.47;97478.22;4931312;29;20598;-73
2022/04/16 11:58:13;;;;;;;26.70;9.95;;;;;;;32.76;30.24;97481.16;4937042;29;20062;-71
2022/04/16 12:00:55;;;;;;;21.52;9.90;;;;;;;32.70;31.43;97478.53;4921568;29;20047;-73
2022/04/16 12:03:44;;;;;;;24.08;10.60;;;;;;;32.63;31.73;97476.72;4935320;29;20047;-69
2022/04/16 12:06:27;;;;;;;27.50;10.52;;;;;;;32.55;32.74;97478.81;4925745;29;20055;-68
2022/04/16 12:09:16;;;;;;;22.92;10.05;;;;;;;32.46;33.96;97480.09;4924799;29;20048;-69
2022/04/16 12:12:11;;;;;;;23.48;9.75;;;;;;;32.33;32.90;97478.31;4926609;29;20044;-68
2022/04/16 12:14:53;;;;;;;22.05;9.30;;;;;;;32.23;33.30;97480.63;4928525;29;20044;-67
2022/04/16 12:17:46;;;;;;;31.58;9.77;;;;;;;32.17;32.94;97482.28;4924339;29;20154;-72
2022/04/16 12:20:27;;;;;;;20.85;7.82;;;;;;;32.14;31.06;97493.34;4587570;29;10001456;-68
2022/04/16 12:23:17;;;;;;;19.33;7.30;;;;;;;32.11;30.68;97490.28;4912157;29;20114;-69
2022/04/16 12:26:06;;;;;;;22.23;7.60;;;;;;;32.05;32.19;97491.97;4926424;29;20066;-69
2022/04/16 12:28:56;;;;;;;18.30;7.38;;;;;;;31.98;32.14;97491.16;4928695;29;20704;-71
2022/04/16 12:31:38;;;;;;;21.58;7.22;;;;;;;31.89;31.50;97487.09;4935085;29;20551;-70
2022/04/16 12:34:27;;;;;;;27.02;7.13;;;;;;;31.81;37.87;97484.66;4929633;29;20171;-68
2022/04/16 12:37:09;;;;;;;27.92;6.90;;;;;;;31.69;35.92;97497.00;4933387;29;20054;-66
2022/04/16 12:39:58;;;;;;;25.73;7.40;;;;;;;31.56;41.25;97493.31;4938509;29;20051;-69
2022/04/16 12:42:40;;;;;;;28.35;7.95;;;;;;;31.38;44.90;97494.97;4942675;29;20051;-68
2022/04/16 12:45:31;;;;;;;46.63;10.05;;;;;;;31.19;59.32;97485.97;4941477;29;20066;-70
2022/04/16 12:48:25;;;;;;;37.53;8.98;;;;;;;30.74;75.36;97491.03;4940404;29;20051;-71
2022/04/16 12:51:01;;;;;;;25.35;8.80;;;;;;;30.50;62.44;97496.88;4945981;29;20153;-72
2022/04/16 12:53:56;;;;;;;24.10;8.20;;;;;;;30.41;82.74;97493.59;4945449;28;20371;-69
2022/04/16 12:56:31;;;;;;;30.80;8.32;;;;;;;30.32;77.74;97509.94;4944921;29;20070;-69
2022/04/16 12:59:25;;;;;;;24.30;8.98;;;;;;;30.17;80.80;97503.97;4943739;29;20043;-68
2022/04/16 13:02:01;;;;;;;20.55;8.65;;;;;;;30.03;59.65;97513.69;4946147;29;20069;-70
2022/04/16 13:04:51;;;;;;;28.13;9.90;;;;;;;29.93;70.75;97510.56;4944355;29;20043;-70
2022/04/16 13:07:32;;;;;;;24.48;8.25;;;;;;;29.84;75.61;97517.06;4946334;29;20051;-70
2022/04/16 13:10:21;;;;;;;26.10;9.02;;;;;;;29.76;83.67;97519.88;4946455;29;20058;-69
2022/04/16 13:13:04;;;;;;;32.40;9.63;;;;;;;29.61;75.61;97512.81;4944216;29;20437;-70
2022/04/16 13:15:53;;;;;;;22.65;9.93;;;;;;;29.53;68.10;97517.47;4945723;28;20051;-68